createdAt,value
2023-01-05T00:00:12.767Z,101677.53
2023-01-05T00:02:18.796Z,101686.78
2023-01-05T00:04:26.212Z,101700.63
2023-01-05T00:06:28.551Z,101699.88
2023-01-05T00:08:36.551Z,101692.78
2023-01-05T00:10:42.920Z,101684.16
2023-01-05T00:12:48.423Z,101680.59
2023-01-05T00:14:53.692Z,101677.09
2023-01-05T00:16:59.016Z,101681.47
2023-01-05T00:19:04.390Z,101677.91
2023-01-05T00:21:18.340Z,101696.50
2023-01-05T00:23:21.302Z,101697.34
2023-01-05T00:25:26.504Z,101706.91
2023-01-05T00:27:29.402Z,101699.19
2023-01-05T00:29:31.611Z,101702.63
2023-01-05T00:31:33.853Z,101700.16
2023-01-05T00:33:36.055Z,101713.09
2023-01-05T00:35:39.800Z,101708.69
2023-01-05T00:37:43.058Z,101707.84
2023-01-05T00:39:45.271Z,101700.75
2023-01-05T00:41:47.520Z,101702.09
2023-01-05T00:43:49.783Z,101707.16
2023-01-05T00:45:52.075Z,101700.44
2023-01-05T00:47:55.368Z,101703.22
2023-01-05T00:49:57.704Z,101708.50
2023-01-05T00:52:00.069Z,101707.28
2023-01-05T00:54:02.292Z,101709.19
2023-01-05T00:56:04.934Z,101717.09
2023-01-05T00:58:07.113Z,101715.81
2023-01-05T01:00:13.748Z,101715.16
2023-01-05T01:02:16.459Z,101705.06
2023-01-05T01:04:19.836Z,101706.63
2023-01-05T01:06:22.520Z,101709.41
2023-01-05T01:08:24.940Z,101718.69
2023-01-05T01:10:27.217Z,101718.09
2023-01-05T01:12:29.479Z,101716.94
2023-01-05T01:14:31.843Z,101709.16
2023-01-05T01:16:35.332Z,101722.22
2023-01-05T01:18:37.693Z,101718.75
2023-01-05T01:20:40.263Z,101719.31
2023-01-05T01:22:42.449Z,101716.84
2023-01-05T01:24:44.612Z,101720.22
2023-01-05T01:26:47.170Z,101729.59
2023-01-05T01:28:49.619Z,101742.47
2023-01-05T01:30:51.916Z,101746.97
2023-01-05T01:32:54.155Z,101755.13
2023-01-05T01:34:56.436Z,101752.75
2023-01-05T01:36:59.354Z,101751.00
2023-01-05T01:39:01.574Z,101765.44
2023-01-05T01:41:04.026Z,101757.19
2023-01-05T01:43:12.564Z,101763.06
2023-01-05T01:45:20.816Z,101753.38
2023-01-05T01:47:28.415Z,101752.72
2023-01-05T01:49:30.571Z,101759.81
2023-01-05T01:51:37.359Z,101756.34
2023-01-05T01:53:43.362Z,101756.94
2023-01-05T01:55:45.691Z,101755.09
2023-01-05T01:57:50.674Z,101753.59
2023-01-05T01:59:53.137Z,101757.81
2023-01-05T02:02:00.157Z,101757.72
2023-01-05T02:04:04.347Z,101760.91
2023-01-05T02:06:07.391Z,101760.97
2023-01-05T02:08:13.441Z,101757.63
2023-01-05T02:10:19.352Z,101761.84
2023-01-05T02:12:26.057Z,101770.13
2023-01-05T02:14:30.021Z,101767.69
2023-01-05T02:16:36.819Z,101773.88
2023-01-05T02:18:51.796Z,101769.59
2023-01-05T02:21:02.192Z,101769.06
2023-01-05T02:23:06.160Z,101775.53
2023-01-05T02:25:19.010Z,101773.72
2023-01-05T02:27:27.585Z,101764.97
2023-01-05T02:29:42.961Z,101766.94
2023-01-05T02:31:55.395Z,101762.53
2023-01-05T02:34:03.403Z,101766.06
2023-01-05T02:36:09.260Z,101756.69
2023-01-05T02:38:17.651Z,101772.91
2023-01-05T02:40:25.539Z,101768.84
2023-01-05T02:42:33.113Z,101779.72
2023-01-05T02:44:35.378Z,101779.69
2023-01-05T02:46:38.086Z,101778.06
2023-01-05T02:48:42.450Z,101784.03
2023-01-05T02:50:48.156Z,101796.78
2023-01-05T02:52:59.612Z,101796.72
2023-01-05T02:55:06.492Z,101799.31
2023-01-05T02:57:14.264Z,101795.91
2023-01-05T02:59:24.646Z,101794.59
2023-01-05T03:01:32.822Z,101796.28
2023-01-05T03:03:41.042Z,101792.84
2023-01-05T03:05:52.490Z,101789.00
2023-01-05T03:08:01.148Z,101786.59
2023-01-05T03:10:24.574Z,101799.41
2023-01-05T03:12:36.881Z,101798.75
2023-01-05T03:14:46.672Z,101807.13
2023-01-05T03:16:51.387Z,101802.25
2023-01-05T03:18:58.772Z,101811.69
2023-01-05T03:21:02.249Z,101794.63
2023-01-05T03:23:12.977Z,101805.66
2023-01-05T03:25:22.866Z,101807.53
2023-01-05T03:27:28.559Z,101805.59
2023-01-05T03:29:34.050Z,101803.84
2023-01-05T03:31:48.051Z,101803.84
2023-01-05T03:34:04.777Z,101810.75
2023-01-05T03:36:09.464Z,101806.31
2023-01-05T03:38:18.247Z,101806.25
2023-01-05T03:40:25.926Z,101807.91
2023-01-05T03:42:30.613Z,101799.31
2023-01-05T03:44:36.672Z,101809.75
2023-01-05T03:46:41.366Z,101805.53
2023-01-05T03:48:43.986Z,101806.53
2023-01-05T03:50:47.760Z,101808.19
2023-01-05T03:52:50.044Z,101806.44
2023-01-05T03:54:52.189Z,101801.38
2023-01-05T03:56:54.413Z,101807.59
2023-01-05T03:58:56.795Z,101803.72
2023-01-05T04:00:58.911Z,101805.66
2023-01-05T04:03:01.396Z,101807.31
2023-01-05T04:05:03.700Z,101813.13
2023-01-05T04:07:07.764Z,101808.94
2023-01-05T04:09:10.030Z,101804.59
2023-01-05T04:11:16.250Z,101809.00
2023-01-05T04:13:18.683Z,101819.19
2023-01-05T04:15:20.979Z,101819.41
2023-01-05T04:17:23.322Z,101825.19
2023-01-05T04:19:25.544Z,101814.16
2023-01-05T04:21:27.915Z,101820.28
2023-01-05T04:23:30.212Z,101826.94
2023-01-05T04:25:32.473Z,101826.66
2023-01-05T04:27:35.003Z,101827.06
2023-01-05T04:29:37.682Z,101824.53
2023-01-05T04:31:39.999Z,101835.59
2023-01-05T04:33:45.613Z,101833.97
2023-01-05T04:35:48.256Z,101837.19
2023-01-05T04:37:50.563Z,101837.16
2023-01-05T04:39:52.772Z,101845.44
2023-01-05T04:41:54.998Z,101833.44
2023-01-05T04:43:57.299Z,101837.06
2023-01-05T04:45:59.638Z,101836.19
2023-01-05T04:48:01.919Z,101839.38
2023-01-05T04:50:04.872Z,101836.59
2023-01-05T04:52:07.972Z,101851.53
2023-01-05T04:54:10.507Z,101840.34
2023-01-05T04:56:12.711Z,101839.38
2023-01-05T04:58:15.112Z,101843.38
2023-01-05T05:00:17.538Z,101840.13
2023-01-05T05:02:20.070Z,101841.13
2023-01-05T05:04:22.394Z,101843.69
2023-01-05T05:06:24.699Z,101841.56
2023-01-05T05:08:26.929Z,101843.53
2023-01-05T05:10:29.327Z,101843.31
2023-01-05T05:12:31.632Z,101840.31
2023-01-05T05:14:33.878Z,101842.44
2023-01-05T05:16:36.062Z,101836.41
2023-01-05T05:18:38.480Z,101838.50
2023-01-05T05:20:44.565Z,101839.44
2023-01-05T05:22:46.822Z,101838.66
2023-01-05T05:24:49.171Z,101839.44
2023-01-05T05:26:51.476Z,101842.22
2023-01-05T05:28:53.732Z,101842.88
2023-01-05T05:30:57.369Z,101844.69
2023-01-05T05:32:59.678Z,101844.41
2023-01-05T05:35:02.035Z,101852.44
2023-01-05T05:37:04.258Z,101849.06
2023-01-05T05:39:06.532Z,101848.75
2023-01-05T05:41:08.713Z,101848.16
2023-01-05T05:43:10.936Z,101850.63
2023-01-05T05:45:13.117Z,101849.56
2023-01-05T05:47:15.299Z,101843.59
2023-01-05T05:49:17.673Z,101847.72
2023-01-05T05:51:19.870Z,101853.59
2023-01-05T05:53:22.222Z,101850.28
2023-01-05T05:55:24.474Z,101852.91
2023-01-05T05:57:26.700Z,101855.81
2023-01-05T05:59:28.871Z,101854.16
2023-01-05T06:01:31.094Z,101857.28
2023-01-05T06:03:33.400Z,101854.84
2023-01-05T06:05:35.822Z,101858.25
2023-01-05T06:07:38.102Z,101853.00
2023-01-05T06:09:40.352Z,101854.84
2023-01-05T06:11:42.571Z,101858.44
2023-01-05T06:13:44.931Z,101861.81
2023-01-05T06:15:47.363Z,101866.09
2023-01-05T06:17:49.755Z,101862.56
2023-01-05T06:19:52.043Z,101856.09
2023-01-05T06:21:54.231Z,101859.44
2023-01-05T06:23:56.375Z,101868.81
2023-01-05T06:25:58.633Z,101863.84
2023-01-05T06:28:01.210Z,101854.44
2023-01-05T06:30:04.684Z,101860.94
2023-01-05T06:32:06.997Z,101861.84
2023-01-05T06:34:09.235Z,101861.13
2023-01-05T06:36:11.548Z,101865.25
2023-01-05T06:38:16.350Z,101858.25
2023-01-05T06:40:18.722Z,101852.44
2023-01-05T06:42:23.535Z,101851.59
2023-01-05T06:44:26.307Z,101852.38
2023-01-05T06:46:28.615Z,101850.06
2023-01-05T06:48:30.880Z,101855.44
2023-01-05T06:50:33.109Z,101854.28
2023-01-05T06:52:40.036Z,101857.22
2023-01-05T06:54:42.372Z,101846.88
2023-01-05T06:56:44.649Z,101849.94
2023-01-05T06:58:46.852Z,101852.13
2023-01-05T07:00:49.128Z,101849.78
2023-01-05T07:02:51.411Z,101848.91
2023-01-05T07:04:53.601Z,101853.31
2023-01-05T07:06:55.988Z,101845.78
2023-01-05T07:08:58.245Z,101843.09
2023-01-05T07:11:00.501Z,101855.28
2023-01-05T07:13:02.774Z,101846.72
2023-01-05T07:15:06.359Z,101841.56
2023-01-05T07:17:08.765Z,101843.22
2023-01-05T07:19:11.250Z,101844.97
2023-01-05T07:21:13.494Z,101850.31
2023-01-05T07:23:15.771Z,101844.03
2023-01-05T07:25:18.581Z,101844.84
2023-01-05T07:27:20.912Z,101845.91
2023-01-05T07:29:23.145Z,101848.25
2023-01-05T07:31:25.362Z,101848.38
2023-01-05T07:33:27.646Z,101845.06
2023-01-05T07:35:30.001Z,101842.88
2023-01-05T07:37:32.251Z,101850.28
2023-01-05T07:39:34.803Z,101844.78
2023-01-05T07:41:37.324Z,101851.97
2023-01-05T07:43:39.611Z,101842.59
2023-01-05T07:45:42.377Z,101850.28
2023-01-05T07:47:44.828Z,101850.22
2023-01-05T07:49:47.176Z,101850.72
2023-01-05T07:51:49.621Z,101856.75
2023-01-05T07:53:51.936Z,101850.25
2023-01-05T07:55:59.444Z,101844.53
2023-01-05T07:58:01.774Z,101834.44
2023-01-05T08:00:05.500Z,101842.88
2023-01-05T08:02:09.261Z,101841.19
2023-01-05T08:04:11.736Z,101846.41
2023-01-05T08:06:18.895Z,101845.13
2023-01-05T08:08:24.587Z,101847.75
2023-01-05T08:10:30.257Z,101840.84
2023-01-05T08:12:32.696Z,101854.28
2023-01-05T08:14:34.990Z,101842.56
2023-01-05T08:16:37.266Z,101838.28
2023-01-05T08:18:39.632Z,101833.34
2023-01-05T08:20:41.867Z,101834.34
2023-01-05T08:22:44.130Z,101839.59
2023-01-05T08:24:46.380Z,101846.53
2023-01-05T08:26:51.659Z,101838.94
2023-01-05T08:28:54.268Z,101834.66
2023-01-05T08:31:02.487Z,101840.84
2023-01-05T08:33:05.614Z,101838.38
2023-01-05T08:35:08.359Z,101835.09
2023-01-05T08:37:10.670Z,101828.88
2023-01-05T08:39:13.573Z,101825.69
2023-01-05T08:41:19.228Z,101827.56
2023-01-05T08:43:22.260Z,101830.16
2023-01-05T08:45:24.673Z,101834.53
2023-01-05T08:47:28.610Z,101840.47
2023-01-05T08:49:31.315Z,101846.63
2023-01-05T08:51:34.071Z,101849.25
2023-01-05T08:53:36.374Z,101855.09
2023-01-05T08:55:38.574Z,101856.44
2023-01-05T08:57:41.003Z,101859.53
2023-01-05T08:59:43.202Z,101846.03
2023-01-05T09:01:45.862Z,101857.16
2023-01-05T09:03:48.556Z,101858.00
2023-01-05T09:05:54.428Z,101852.94
2023-01-05T09:07:57.149Z,101852.47
2023-01-05T09:09:59.488Z,101843.75
2023-01-05T09:12:01.735Z,101836.78
2023-01-05T09:14:04.264Z,101840.00
2023-01-05T09:16:08.569Z,101835.81
2023-01-05T09:18:10.940Z,101832.63
2023-01-05T09:20:13.251Z,101833.63
2023-01-05T09:22:15.519Z,101839.63
2023-01-05T09:24:17.860Z,101836.22
2023-01-05T09:26:20.336Z,101842.19
2023-01-05T09:28:22.721Z,101829.78
2023-01-05T09:30:25.110Z,101831.84
2023-01-05T09:32:27.364Z,101834.28
2023-01-05T09:34:29.951Z,101829.47
2023-01-05T09:36:32.702Z,101836.56
2023-01-05T09:38:35.475Z,101829.50
2023-01-05T09:40:44.056Z,101823.66
2023-01-05T09:42:47.128Z,101829.72
2023-01-05T09:44:58.933Z,101823.91
2023-01-05T09:47:13.816Z,101831.00
2023-01-05T09:49:17.634Z,101823.50
2023-01-05T09:51:20.371Z,101826.75
2023-01-05T09:53:30.481Z,101823.50
2023-01-05T09:55:35.391Z,101820.09
2023-01-05T09:57:37.848Z,101823.72
2023-01-05T09:59:47.721Z,101817.69
2023-01-05T10:01:52.099Z,101807.63
2023-01-05T10:04:04.642Z,101811.94
2023-01-05T10:06:13.968Z,101807.78
2023-01-05T10:08:23.235Z,101814.59
2023-01-05T10:10:36.391Z,101805.28
2023-01-05T10:12:45.172Z,101807.97
2023-01-05T10:14:53.379Z,101817.34
2023-01-05T10:17:30.184Z,101813.28
2023-01-05T10:19:20.921Z,101824.63
2023-01-05T10:21:34.140Z,101819.56
2023-01-05T10:23:38.108Z,101841.81
2023-01-05T10:25:48.053Z,101844.00
2023-01-05T10:27:56.717Z,101837.38
2023-01-05T10:30:11.942Z,101832.41
2023-01-05T10:32:18.740Z,101838.69
2023-01-05T10:34:23.781Z,101824.75
2023-01-05T10:37:06.561Z,101829.63
2023-01-05T10:39:01.260Z,101823.19
2023-01-05T10:41:09.761Z,101825.66
2023-01-05T10:43:19.058Z,101838.06
2023-01-05T10:45:23.340Z,101828.72
2023-01-05T10:47:29.126Z,101827.69
2023-01-05T10:49:32.942Z,101836.22
2023-01-05T10:51:36.951Z,101835.44
2023-01-05T10:53:42.035Z,101831.72
2023-01-05T10:55:50.498Z,101840.31
2023-01-05T10:57:52.679Z,101828.47
2023-01-05T10:59:59.415Z,101827.84
2023-01-05T11:02:02.131Z,101832.06
2023-01-05T11:06:34.922Z,101813.59
2023-01-05T11:08:37.631Z,101822.03
2023-01-05T11:10:48.621Z,101815.22
2023-01-05T11:12:55.120Z,101815.22
2023-01-05T11:15:01.194Z,101809.25
2023-01-05T11:17:07.244Z,101801.81
2023-01-05T11:19:16.821Z,101805.66
2023-01-05T11:21:23.671Z,101802.19
2023-01-05T11:23:36.849Z,101794.41
2023-01-05T11:25:40.124Z,101796.47
2023-01-05T11:27:42.340Z,101787.97
2023-01-05T11:29:44.758Z,101790.63
2023-01-05T11:31:53.163Z,101792.59
2023-01-05T11:33:58.668Z,101779.56
2023-01-05T11:36:03.243Z,101782.41
2023-01-05T11:38:06.598Z,101776.31
2023-01-05T11:40:17.685Z,101774.50
2023-01-05T11:42:26.461Z,101777.16
2023-01-05T11:44:29.471Z,101775.56
2023-01-05T11:48:52.533Z,101781.91
2023-01-05T11:50:57.782Z,101773.97
2023-01-05T11:53:02.707Z,101766.22
2023-01-05T11:55:16.103Z,101768.09
2023-01-05T11:57:22.928Z,101764.22
2023-01-05T11:59:30.264Z,101763.69
2023-01-05T12:01:47.330Z,101762.91
2023-01-05T12:04:01.953Z,101760.19
2023-01-05T12:06:14.561Z,101765.94
2023-01-05T12:08:25.119Z,101755.19
2023-01-05T12:10:31.982Z,101750.06
2023-01-05T12:12:47.031Z,101749.31
2023-01-05T12:14:58.343Z,101745.88
2023-01-05T12:17:09.003Z,101752.66
2023-01-05T12:19:14.254Z,101740.59
2023-01-05T12:21:22.720Z,101733.75
2023-01-05T12:23:29.649Z,101735.25
2023-01-05T12:25:45.116Z,101734.56
2023-01-05T12:27:53.511Z,101738.97
2023-01-05T12:35:09.554Z,101733.13
2023-01-05T12:37:18.251Z,101736.53
2023-01-05T12:39:31.569Z,101719.50
2023-01-05T12:41:38.648Z,101717.75
2023-01-05T12:43:44.357Z,101717.88
2023-01-05T12:45:52.886Z,101730.63
2023-01-05T12:48:03.766Z,101718.69
2023-01-05T12:50:20.096Z,101711.56
2023-01-05T12:52:24.680Z,101719.34
2023-01-05T12:54:33.865Z,101724.69
2023-01-05T12:56:43.650Z,101714.66
2023-01-05T12:58:56.452Z,101713.41
2023-01-05T13:01:01.223Z,101704.34
2023-01-05T13:03:13.512Z,101691.44
2023-01-05T13:05:20.531Z,101684.59
2023-01-05T13:07:29.529Z,101692.19
2023-01-05T13:09:33.366Z,101695.72
2023-01-05T13:11:41.040Z,101691.56
2023-01-05T13:13:49.459Z,101700.63
2023-01-05T13:15:58.194Z,101687.00
2023-01-05T13:18:04.473Z,101679.19
2023-01-05T13:20:13.379Z,101680.94
2023-01-05T13:22:24.219Z,101686.84
2023-01-05T13:24:31.602Z,101675.09
2023-01-05T13:26:38.037Z,101671.69
2023-01-05T13:28:40.801Z,101677.06
2023-01-05T13:30:55.943Z,101681.38
2023-01-05T13:33:02.101Z,101674.41
2023-01-05T13:35:08.627Z,101666.19
2023-01-05T13:37:23.330Z,101662.25
2023-01-05T13:39:34.213Z,101652.06
2023-01-05T13:41:38.095Z,101649.63
2023-01-05T13:43:43.827Z,101649.72
2023-01-05T13:45:50.839Z,101652.34
2023-01-05T13:47:57.497Z,101645.44
2023-01-05T13:50:03.409Z,101642.63
2023-01-05T13:52:12.025Z,101644.72
2023-01-05T13:54:19.485Z,101643.78
2023-01-05T13:56:26.911Z,101641.84
2023-01-05T13:58:38.609Z,101640.84
2023-01-05T14:00:43.938Z,101634.19
2023-01-05T14:02:57.192Z,101627.94
2023-01-05T14:04:59.952Z,101637.59
2023-01-05T14:07:07.460Z,101623.69
2023-01-05T14:09:18.532Z,101628.16
2023-01-05T14:11:24.112Z,101630.91
2023-01-05T14:13:32.531Z,101628.28
2023-01-05T14:15:37.918Z,101645.81
2023-01-05T14:17:46.368Z,101625.47
2023-01-05T14:19:53.459Z,101627.47
2023-01-05T14:22:00.139Z,101630.00
2023-01-05T14:24:02.319Z,101636.72
2023-01-05T14:26:06.965Z,101629.09
2023-01-05T14:28:15.503Z,101616.28
2023-01-05T14:30:21.926Z,101611.09
2023-01-05T14:32:30.403Z,101609.38
2023-01-05T14:34:32.775Z,101614.63
2023-01-05T14:36:39.989Z,101620.59
2023-01-05T14:38:48.510Z,101622.09
2023-01-05T14:40:55.976Z,101615.41
2023-01-05T14:42:59.396Z,101612.84
2023-01-05T14:45:07.129Z,101602.47
2023-01-05T14:47:10.512Z,101594.28
2023-01-05T14:49:23.204Z,101603.19
2023-01-05T14:51:29.895Z,101608.31
2023-01-05T14:53:38.372Z,101598.69
2023-01-05T14:56:03.574Z,101595.44
2023-01-05T14:58:13.071Z,101586.47
2023-01-05T15:00:23.743Z,101595.09
2023-01-05T15:02:34.419Z,101590.84
2023-01-05T15:04:39.497Z,101584.81
2023-01-05T15:06:45.346Z,101578.09
2023-01-05T15:08:52.007Z,101583.94
2023-01-05T15:11:04.620Z,101589.16
2023-01-05T15:13:13.516Z,101583.06
2023-01-05T15:15:20.800Z,101582.44
2023-01-05T15:17:26.751Z,101589.59
2023-01-05T15:19:31.736Z,101585.88
2023-01-05T15:21:43.839Z,101575.53
2023-01-05T15:23:49.880Z,101583.06
2023-01-05T15:26:08.041Z,101577.75
2023-01-05T15:28:23.554Z,101573.56
2023-01-05T15:30:30.582Z,101578.78
2023-01-05T15:32:39.439Z,101564.91
2023-01-05T15:34:47.669Z,101574.16
2023-01-05T15:36:53.226Z,101572.50
2023-01-05T15:38:55.730Z,101579.44
2023-01-05T15:41:02.731Z,101561.91
2023-01-05T15:43:05.609Z,101576.53
2023-01-05T15:45:18.145Z,101556.03
2023-01-05T15:47:23.042Z,101555.25
2023-01-05T15:49:29.815Z,101561.97
2023-01-05T15:51:33.621Z,101547.28
2023-01-05T15:53:41.491Z,101556.03
2023-01-05T15:55:46.777Z,101550.78
2023-01-05T15:57:55.277Z,101554.97
2023-01-05T15:59:57.610Z,101539.38
2023-01-05T16:02:00.366Z,101535.03
2023-01-05T16:04:09.187Z,101544.66
2023-01-05T16:06:16.427Z,101543.91
2023-01-05T16:08:18.818Z,101535.16
2023-01-05T16:10:27.278Z,101534.91
2023-01-05T16:12:29.595Z,101547.91
2023-01-05T16:14:36.814Z,101536.72
2023-01-05T16:16:52.589Z,101541.19
2023-01-05T16:19:01.105Z,101530.75
2023-01-05T16:21:16.103Z,101537.41
2023-01-05T16:23:28.800Z,101541.94
2023-01-05T16:25:42.200Z,101534.81
2023-01-05T16:27:48.675Z,101539.13
2023-01-05T16:29:51.247Z,101524.44
2023-01-05T16:31:55.747Z,101541.19
2023-01-05T16:34:02.210Z,101534.06
2023-01-05T16:36:10.650Z,101540.09
2023-01-05T16:38:14.171Z,101536.75
2023-01-05T16:40:20.979Z,101527.13
2023-01-05T16:42:26.651Z,101524.56
2023-01-05T16:44:33.331Z,101531.59
2023-01-05T16:46:40.248Z,101529.06
2023-01-05T16:48:47.282Z,101531.66
2023-01-05T16:50:55.223Z,101522.13
2023-01-05T16:53:00.448Z,101519.63
2023-01-05T16:55:10.680Z,101524.56
2023-01-05T16:57:21.032Z,101524.44
2023-01-05T16:59:34.148Z,101507.84
2023-01-05T17:01:44.129Z,101518.06
2023-01-05T17:03:46.857Z,101512.06
2023-01-05T17:05:52.690Z,101508.56
2023-01-05T17:08:01.076Z,101513.75
2023-01-05T17:10:03.635Z,101523.50
2023-01-05T17:12:06.140Z,101512.41
2023-01-05T17:14:09.810Z,101518.56
2023-01-05T17:16:13.508Z,101519.50
2023-01-05T17:18:18.694Z,101510.53
2023-01-05T17:20:21.012Z,101508.78
2023-01-05T17:22:23.291Z,101505.66
2023-01-05T17:24:27.713Z,101510.41
2023-01-05T17:26:36.539Z,101501.38
2023-01-05T17:28:42.040Z,101513.91
2023-01-05T17:30:46.498Z,101503.69
2023-01-05T17:32:52.256Z,101502.81
2023-01-05T17:34:54.535Z,101492.66
2023-01-05T17:36:59.386Z,101485.34
2023-01-05T17:39:01.937Z,101506.72
2023-01-05T17:41:04.409Z,101486.13
2023-01-05T17:43:07.417Z,101480.19
2023-01-05T17:45:13.351Z,101488.72
2023-01-05T17:47:15.662Z,101478.59
2023-01-05T17:49:21.479Z,101494.84
2023-01-05T17:51:23.819Z,101481.78
2023-01-05T17:53:26.200Z,101490.59
2023-01-05T17:55:29.850Z,101487.03
2023-01-05T17:57:32.180Z,101466.72
2023-01-05T17:59:34.478Z,101464.63
2023-01-05T18:01:36.695Z,101488.59
2023-01-05T18:03:39.073Z,101464.66
2023-01-05T18:07:43.936Z,101460.97
2023-01-05T18:09:46.015Z,101466.56
2023-01-05T18:11:50.809Z,101480.31
2023-01-05T18:13:54.034Z,101464.09
2023-01-05T18:18:00.446Z,101482.50
2023-01-05T18:20:03.001Z,101471.34
2023-01-05T18:22:06.048Z,101463.03
2023-01-05T18:24:08.387Z,101473.34
2023-01-05T18:26:10.991Z,101463.13
2023-01-05T18:28:13.577Z,101472.56
2023-01-05T18:30:15.959Z,101456.81
2023-01-05T18:32:18.539Z,101469.00
2023-01-05T18:34:21.060Z,101468.31
2023-01-05T18:36:23.242Z,101453.84
2023-01-05T18:38:25.527Z,101449.88
2023-01-05T18:40:29.138Z,101448.34
2023-01-05T18:42:31.362Z,101447.97
2023-01-05T18:44:33.603Z,101449.69
2023-01-05T18:46:36.168Z,101454.72
2023-01-05T18:48:38.563Z,101447.81
2023-01-05T18:50:44.961Z,101460.91
2023-01-05T18:52:48.965Z,101442.63
2023-01-05T18:54:51.317Z,101440.25
2023-01-05T18:56:53.620Z,101443.56
2023-01-05T18:58:56.372Z,101452.47
2023-01-05T19:00:58.675Z,101436.88
2023-01-05T19:03:01.115Z,101429.13
2023-01-05T19:05:03.388Z,101441.34
2023-01-05T19:07:05.679Z,101429.94
2023-01-05T19:09:09.638Z,101431.03
2023-01-05T19:11:14.212Z,101440.03
2023-01-05T19:13:16.515Z,101439.91
2023-01-05T19:15:18.748Z,101438.34
2023-01-05T19:17:21.000Z,101434.88
2023-01-05T19:19:23.415Z,101431.50
2023-01-05T19:21:26.692Z,101442.22
2023-01-05T19:23:29.184Z,101437.84
2023-01-05T19:25:31.439Z,101429.06
2023-01-05T19:27:33.713Z,101418.28
2023-01-05T19:29:36.026Z,101419.13
2023-01-05T19:31:39.039Z,101424.31
2023-01-05T19:33:42.393Z,101427.03
2023-01-05T19:35:44.651Z,101418.16
2023-01-05T19:37:47.382Z,101416.81
2023-01-05T19:39:49.665Z,101410.84
2023-01-05T19:41:52.113Z,101408.63
2023-01-05T19:43:56.221Z,101414.84
2023-01-05T19:46:00.459Z,101430.06
2023-01-05T19:48:02.714Z,101432.88
2023-01-05T19:50:05.714Z,101419.09
2023-01-05T19:52:07.975Z,101422.47
2023-01-05T19:54:11.353Z,101412.25
2023-01-05T19:56:15.831Z,101410.53
2023-01-05T19:58:18.063Z,101410.50
2023-01-05T20:00:20.314Z,101406.84
2023-01-05T20:02:22.692Z,101400.91
2023-01-05T20:04:25.077Z,101399.38
2023-01-05T20:06:30.684Z,101407.94
2023-01-05T20:08:33.799Z,101399.50
2023-01-05T20:10:38.256Z,101383.22
2023-01-05T20:12:40.832Z,101381.63
2023-01-05T20:14:44.041Z,101381.72
2023-01-05T20:16:50.189Z,101381.06
2023-01-05T20:18:52.834Z,101380.66
2023-01-05T20:20:55.105Z,101366.94
2023-01-05T20:22:57.408Z,101368.91
2023-01-05T20:24:59.853Z,101362.69
2023-01-05T20:27:07.870Z,101356.69
2023-01-05T20:29:10.651Z,101354.09
2023-01-05T20:31:19.194Z,101365.03
2023-01-05T20:33:21.490Z,101334.75
2023-01-05T20:35:23.959Z,101342.59
2023-01-05T20:37:29.345Z,101335.13
2023-01-05T20:39:32.723Z,101332.31
2023-01-05T20:41:39.204Z,101331.56
2023-01-05T20:43:44.694Z,101330.78
2023-01-05T20:45:47.102Z,101325.03
2023-01-05T20:47:49.378Z,101325.97
2023-01-05T20:49:51.896Z,101320.75
2023-01-05T20:51:54.489Z,101324.16
2023-01-05T20:53:59.369Z,101312.94
2023-01-05T20:56:06.117Z,101317.16
2023-01-05T20:58:08.660Z,101312.75
2023-01-05T21:00:14.182Z,101311.91
2023-01-05T21:02:23.338Z,101325.06
2023-01-05T21:04:27.835Z,101314.00
2023-01-05T21:06:30.376Z,101297.59
2023-01-05T21:08:35.167Z,101301.84
2023-01-05T21:10:39.297Z,101308.66
2023-01-05T21:12:42.235Z,101316.56
2023-01-05T21:14:44.957Z,101318.88
2023-01-05T21:16:50.427Z,101313.88
2023-01-05T21:18:53.109Z,101305.44
2023-01-05T21:20:55.747Z,101304.66
2023-01-05T21:22:58.371Z,101302.97
2023-01-05T21:25:01.570Z,101307.28
2023-01-05T21:27:04.310Z,101302.91
2023-01-05T21:29:08.147Z,101297.94
2023-01-05T21:31:14.878Z,101309.72
2023-01-05T21:33:17.524Z,101298.41
2023-01-05T21:35:19.802Z,101309.47
2023-01-05T21:37:22.101Z,101304.25
2023-01-05T21:39:26.223Z,101297.63
2023-01-05T21:41:32.223Z,101312.78
2023-01-05T21:43:35.661Z,101293.91
2023-01-05T21:45:40.883Z,101286.22
2023-01-05T21:47:43.188Z,101288.78
2023-01-05T21:49:45.982Z,101289.63
2023-01-05T21:51:51.599Z,101279.41
2023-01-05T21:53:56.953Z,101281.19
2023-01-05T21:56:02.836Z,101282.00
2023-01-05T21:58:05.272Z,101271.69
2023-01-05T22:00:08.949Z,101270.72
2023-01-05T22:02:11.799Z,101267.34
2023-01-05T22:04:14.266Z,101268.88
2023-01-05T22:06:16.918Z,101268.06
2023-01-05T22:08:19.564Z,101262.94
2023-01-05T22:10:21.929Z,101256.00
2023-01-05T22:12:24.244Z,101249.09
2023-01-05T22:14:26.565Z,101242.31
2023-01-05T22:16:28.958Z,101239.53
2023-01-05T22:18:31.735Z,101238.69
2023-01-05T22:20:34.117Z,101233.41
2023-01-05T22:22:36.371Z,101228.03
2023-01-05T22:24:39.021Z,101224.00
2023-01-05T22:26:41.295Z,101223.94
2023-01-05T22:28:45.472Z,101216.25
2023-01-05T22:30:47.731Z,101225.78
2023-01-05T22:32:50.113Z,101223.47
2023-01-05T22:34:52.447Z,101207.13
2023-01-05T22:36:54.757Z,101225.03
2023-01-05T22:38:57.719Z,101205.09
2023-01-05T22:41:00.591Z,101218.97
2023-01-05T22:43:02.937Z,101196.50
2023-01-05T22:45:05.491Z,101181.09
2023-01-05T22:47:07.849Z,101181.81
2023-01-05T22:49:14.353Z,101200.69
2023-01-05T22:51:18.219Z,101174.66
2023-01-05T22:53:20.505Z,101181.38
2023-01-05T22:55:22.736Z,101177.81
2023-01-05T22:57:25.057Z,101176.97
2023-01-05T22:59:28.645Z,101162.56
2023-01-05T23:01:34.356Z,101161.69
2023-01-05T23:03:36.694Z,101176.81
2023-01-05T23:05:39.775Z,101163.13
2023-01-05T23:07:42.005Z,101169.28
2023-01-05T23:09:44.173Z,101169.25
2023-01-05T23:11:47.155Z,101164.63
2023-01-05T23:13:49.946Z,101162.19
2023-01-05T23:15:55.032Z,101151.91
2023-01-05T23:17:57.344Z,101147.28
2023-01-05T23:19:59.610Z,101148.19
2023-01-05T23:22:01.911Z,101147.34
2023-01-05T23:24:05.252Z,101173.75
2023-01-05T23:26:09.460Z,101148.22
2023-01-05T23:28:11.801Z,101164.44
2023-01-05T23:30:14.234Z,101154.06
2023-01-05T23:32:18.888Z,101160.47
2023-01-05T23:34:21.285Z,101156.03
2023-01-05T23:36:24.192Z,101142.41
2023-01-05T23:38:28.039Z,101143.47
2023-01-05T23:40:30.240Z,101149.72
2023-01-05T23:42:35.628Z,101143.69
2023-01-05T23:44:37.903Z,101121.09
2023-01-05T23:46:41.270Z,101139.00
2023-01-05T23:48:44.208Z,101136.63
2023-01-05T23:50:48.505Z,101128.91
2023-01-05T23:52:50.790Z,101113.69
2023-01-05T23:54:53.159Z,101117.94
2023-01-05T23:56:55.411Z,101124.84
2023-01-05T23:59:04.152Z,101107.56
